Página principal
METAR-TAF:

METAR-TAF

Aeroportos :

Xangai-Pudong, China

Aeroporto Internacional de Xangai Pudong

latitude: 31-07N, longitude: 121-46E, altura: 4 m

Observação actual do tempo

O boletim foi feito há 21 minutos, às 22:30 UTC
Vento 14 kt de nor-noroeste
Temperatura 11°C
Humidade 94%
Pressão 1021 hPa
Visibilidade: 3000 m
Nuvens fragmentadasa uma altura de 500 ft
Encobertoa uma altura de 3000 ft
chuva fraca, neblina

METAR: ZSPD 212230Z 33007MPS 3000 -RA BR BKN005 OVC030 11/10 Q1021 NOSIG

Hora: 06:51 (22:51 UTC)

Previsão

O boletim foi feito há 7 horas e 19 minutos, às 15:32 UTC
Previsão válida de 21 às 18 UTC a 22 às 18 UTC
Vento 12 kt de nor-noroeste
Visibilidade: 2500 m
Nuvens fragmentadasa uma altura de 700 ft
Encobertoa uma altura de 3300 ft
chuva fraca, neblina
Tornando-se
de 21 às 23 UTC a 21 às 24 UTC
Visibilidade: 6000 m
Nuvens fragmentadasa uma altura de 1100 ft

TAF: ZSPD 211532Z 2118/2218 34006MPS 2500 -RA BR BKN007 OVC033 TX14/2206Z TN08/2121Z BECMG 2123/2124 6000 BKN011

Observações e previsões do tempo de mais de 4000 aeroportos (mensagens METAR e TAF).

As estações disponíveis são os pontos amarelos e vermelhos sobre o mapa.

Mova o rato sobre o mapa para ver o nome da estação.

Depois clique no ponto para visualizar as observações e previsões meteorológicas.

Para alterar o mapa : clique nos botões verdes com uma cruz preta para aumentar o zoom; no botão verde com uma pitada de zoom; ou nas setas verdes para mapas adjacentes.


METAR-TAF: